RYR66 EHAM-EGCC
Flight info
| Callsign | RYR66 |
|---|---|
| Flight time | N/A |
| Altitude | 32000 |
| Route | BERGI L60 OTBED |
| Aircraft | B738/M-SDE2E3FGHIRWXY/LB1 |
Departure
| Time | 2026-05-06 21:09 |
|---|---|
| Airport | Amsterdam Airport Schiphol (EHAM) |
Arrival
| Time | N/A |
|---|---|
| Airport | Manchester Airport (EGCC) |
| Time | Latitude | Longitude | Altitude | Speed | Heading |
|---|---|---|---|---|---|
| 2026-05-06 21:02 | 52.31594 | 4.74154 | -4 ft | 10 kts | 4° |
| 2026-05-06 21:02 | 52.31664 | 4.74162 | -4 ft | 10 kts | 2° |
| 2026-05-06 21:02 | 52.31736 | 4.74168 | -4 ft | 13 kts | 2° |
| 2026-05-06 21:03 | 52.31843 | 4.74177 | -4 ft | 17 kts | 3° |
| 2026-05-06 21:03 | 52.31967 | 4.74188 | -4 ft | 19 kts | 1° |
| 2026-05-06 21:03 | 52.32037 | 4.74073 | -4 ft | 18 kts | 275° |
| 2026-05-06 21:03 | 52.32045 | 4.73841 | -3 ft | 23 kts | 273° |
| 2026-05-06 21:04 | 52.32056 | 4.73557 | -4 ft | 26 kts | 274° |
| 2026-05-06 21:04 | 52.32122 | 4.73307 | -4 ft | 24 kts | 319° |
| 2026-05-06 21:04 | 52.32246 | 4.73136 | -4 ft | 23 kts | 319° |
| 2026-05-06 21:04 | 52.32364 | 4.72969 | -4 ft | 22 kts | 319° |
| 2026-05-06 21:05 | 52.32479 | 4.72807 | -4 ft | 22 kts | 319° |
| 2026-05-06 21:05 | 52.32590 | 4.72649 | -4 ft | 21 kts | 320° |
| 2026-05-06 21:05 | 52.32694 | 4.72493 | -4 ft | 20 kts | 311° |
| 2026-05-06 21:05 | 52.32787 | 4.72321 | -4 ft | 20 kts | 312° |
| 2026-05-06 21:06 | 52.32876 | 4.72155 | -4 ft | 19 kts | 311° |
| 2026-05-06 21:06 | 52.32961 | 4.71998 | -4 ft | 18 kts | 311° |
| 2026-05-06 21:06 | 52.33044 | 4.71844 | -4 ft | 18 kts | 312° |
| 2026-05-06 21:06 | 52.33125 | 4.71695 | -4 ft | 17 kts | 308° |
| 2026-05-06 21:07 | 52.33142 | 4.71518 | -4 ft | 17 kts | 242° |
| 2026-05-06 21:07 | 52.33062 | 4.71389 | -4 ft | 16 kts | 218° |
| 2026-05-06 21:07 | 52.32981 | 4.71272 | -4 ft | 15 kts | 221° |
| 2026-05-06 21:07 | 52.32903 | 4.71159 | -4 ft | 15 kts | 221° |
| 2026-05-06 21:08 | 52.32865 | 4.71015 | -4 ft | 15 kts | 272° |
| 2026-05-06 21:08 | 52.32917 | 4.70887 | -4 ft | 15 kts | 356° |
| 2026-05-06 21:08 | 52.33113 | 4.70907 | -6 ft | 62 kts | 3° |
| 2026-05-06 21:08 | 52.33822 | 4.70970 | -3 ft | 139 kts | 3° |
| 2026-05-06 21:09 | 52.34988 | 4.71074 | 166 ft | 188 kts | 2° |
| 2026-05-06 21:09 | 52.36352 | 4.71229 | 834 ft | 210 kts | 2° |
| 2026-05-06 21:09 | 52.37853 | 4.71372 | 1495 ft | 218 kts | 2° |
| 2026-05-06 21:09 | 52.39364 | 4.71571 | 2306 ft | 219 kts | 4° |
| 2026-05-06 21:10 | 52.40880 | 4.71760 | 3125 ft | 216 kts | 4° |
| 2026-05-06 21:10 | 52.42371 | 4.71983 | 3884 ft | 219 kts | 5° |
| 2026-05-06 21:10 | 52.43938 | 4.72262 | 4409 ft | 228 kts | 3° |
| 2026-05-06 21:10 | 52.45473 | 4.72353 | 5386 ft | 215 kts | 0° |
| 2026-05-06 21:11 | 52.46930 | 4.72407 | 6301 ft | 204 kts | 0° |
| 2026-05-06 21:11 | 52.48312 | 4.72484 | 7247 ft | 192 kts | 1° |
| 2026-05-06 21:11 | 52.49633 | 4.72584 | 8026 ft | 198 kts | 1° |
| 2026-05-06 21:11 | 52.51096 | 4.72711 | 8262 ft | 223 kts | 2° |
| 2026-05-06 21:12 | 52.52724 | 4.72866 | 8470 ft | 246 kts | 2° |
| 2026-05-06 21:12 | 52.54482 | 4.73040 | 8828 ft | 259 kts | 2° |
| 2026-05-06 21:12 | 52.56301 | 4.73220 | 9382 ft | 263 kts | 1° |
| 2026-05-06 21:12 | 52.58098 | 4.72738 | 9942 ft | 264 kts | 338° |
| 2026-05-06 21:13 | 52.59721 | 4.71328 | 10532 ft | 266 kts | 322° |
| 2026-05-06 21:13 | 52.61019 | 4.69053 | 10812 ft | 284 kts | 306° |
| 2026-05-06 21:13 | 52.62214 | 4.66280 | 10972 ft | 311 kts | 304° |
| 2026-05-06 21:13 | 52.63484 | 4.63219 | 11189 ft | 336 kts | 304° |
| 2026-05-06 21:14 | 52.64847 | 4.59925 | 11384 ft | 360 kts | 304° |
| 2026-05-06 21:14 | 52.66300 | 4.56430 | 11786 ft | 375 kts | 304° |
| 2026-05-06 21:14 | 52.67790 | 4.52866 | 12462 ft | 381 kts | 304° |
| 2026-05-06 21:14 | 52.69303 | 4.49258 | 13231 ft | 383 kts | 304° |